Gaya Airport
VEGY : now visible

Airfield :











YOU CAN JOIN US ON...

 
LOGIN :

Register | Disclaimer

   EN    FR    IT 

 









Legend :    VFR   Marginal VFR   IFR   Intensive IFR   Very Intensive IFR
Visi :
Ceiling :
>= 8 km
>= 3000ft
5 to 8 km
1000 to 3000 ft
1500m to 5 km
500 to 1000 ft
800 to 1500m
200 to 500 ft
< 800m
< 200 ft
Symbols :   Thunderstorms  Fog  Heavy snow  Heavy precipitations  Wind > 20 kt






- Airport Elevation : 380 ft
- IATA code : GAY


VEGY - Gaya

CURRENT METAR :
  • 260400Z 07003KT 4500 HZ NSC 37/23 Q0999

EXPIRED METARs :
  • 260300Z 10006KT 4000 HZ NSC 35/24 Q1000
  • 260230Z 11005KT 4000 HZ NSC 34/24 Q1000 NOSIG
  • 260200Z 09006KT 4000 HZ NSC 33/24 Q0999 NOSIG
  • 260130Z 09005KT 4000 HZ NSC 33/24 Q0999 NOSIG
  • 260100Z 06003KT 4000 HZ NSC 31/24 Q0999 NOSIG
  • 260030Z 08004KT 3500 HZ FEW020 31/24 Q0999 NOSIG
  • 260000Z 07002KT 3500 HZ FEW020 30/24 Q0998 NOSIG

TAF TAF VEGY
Valid from the 26 at 03:00 until the 26 at 12:00 UTC


260200Z 2603/2612 09006KT 4000 HZ FEW100
BECMG 2605/2607 6000 FEW020 SCT025
VECF FIR / Asia



MET'MAP, your aeronautical weather chart ! - Copyright ORBIFLY December 2007 - Disclaimer

ORBIFLY MET'MAP TEAM :

Programming & Development : Alexandra Zaïnal
Original concept : Baudouin d'Aumeries
Technical & hardware support : Manuel Goepfert
Assistance : Marc-Olivier Méhu




SOURCES & CREDITS :

   NOAA       Earth
Advisory